createdAt,value
2023-02-22T00:00:22.871Z,2.53
2023-02-22T00:04:16.087Z,2.47
2023-02-22T00:07:52.164Z,2.72
2023-02-22T00:11:24.156Z,2.30
2023-02-22T00:14:56.210Z,2.70
2023-02-22T00:18:29.646Z,2.45
2023-02-22T00:22:02.108Z,1.92
2023-02-22T00:25:35.538Z,2.63
2023-02-22T00:29:08.952Z,2.10
2023-02-22T00:32:42.739Z,2.47
2023-02-22T00:36:15.004Z,2.90
2023-02-22T00:39:51.067Z,2.70
2023-02-22T00:43:22.826Z,2.17
2023-02-22T00:46:55.057Z,2.77
2023-02-22T00:50:28.985Z,2.40
2023-02-22T00:54:01.806Z,2.40
2023-02-22T00:57:35.198Z,2.55
2023-02-22T01:01:07.515Z,4.03
2023-02-22T01:04:39.580Z,1.80
2023-02-22T01:08:14.224Z,3.30
2023-02-22T01:11:46.044Z,2.37
2023-02-22T01:15:23.229Z,2.17
2023-02-22T01:18:55.001Z,1.52
2023-02-22T01:22:28.081Z,2.57
2023-02-22T01:25:59.960Z,2.13
2023-02-22T01:29:31.978Z,2.03
2023-02-22T01:33:06.317Z,2.22
2023-02-22T01:36:40.031Z,2.17
2023-02-22T01:40:20.323Z,2.25
2023-02-22T01:43:53.725Z,3.10
2023-02-22T01:47:25.566Z,2.63
2023-02-22T01:51:03.905Z,3.83
2023-02-22T01:54:40.118Z,4.43
2023-02-22T01:58:13.792Z,2.60
2023-02-22T02:01:45.861Z,2.83
2023-02-22T02:05:20.366Z,2.38
2023-02-22T02:09:12.134Z,2.03
2023-02-22T02:12:47.570Z,2.53
2023-02-22T02:16:21.527Z,2.03
2023-02-22T02:19:59.891Z,2.90
2023-02-22T02:23:44.090Z,1.77
2023-02-22T02:27:23.095Z,2.28
2023-02-22T02:31:09.937Z,2.15
2023-02-22T02:34:54.244Z,2.30
2023-02-22T02:38:47.376Z,2.50
2023-02-22T02:42:26.176Z,2.08
2023-02-22T02:46:25.428Z,2.72
2023-02-22T02:50:07.967Z,3.87
2023-02-22T02:53:44.917Z,3.03
2023-02-22T02:57:17.133Z,1.35
2023-02-22T03:00:52.484Z,2.83
2023-02-22T03:04:44.862Z,3.03
2023-02-22T03:08:21.209Z,2.67
2023-02-22T03:12:24.575Z,3.60
2023-02-22T03:16:08.515Z,2.75
2023-02-22T03:19:52.034Z,2.72
2023-02-22T03:23:46.539Z,3.13
2023-02-22T03:27:33.850Z,3.20
2023-02-22T03:31:13.026Z,2.55
2023-02-22T03:34:58.141Z,3.22
2023-02-22T03:38:33.088Z,2.93
2023-02-22T03:42:10.224Z,3.42
2023-02-22T03:45:44.985Z,2.83
2023-02-22T03:49:40.326Z,3.03
2023-02-22T03:53:12.569Z,3.97
2023-02-22T03:56:53.702Z,3.75
2023-02-22T04:00:31.044Z,3.97
2023-02-22T04:04:03.697Z,3.47
2023-02-22T04:07:35.881Z,3.50
2023-02-22T04:11:07.697Z,3.38
2023-02-22T04:14:39.746Z,3.53
2023-02-22T04:18:11.590Z,2.65
2023-02-22T04:21:43.694Z,3.00
2023-02-22T04:25:15.462Z,4.17
2023-02-22T04:28:47.443Z,4.15
2023-02-22T04:32:19.269Z,2.97
2023-02-22T04:35:51.770Z,3.10
2023-02-22T04:39:23.538Z,2.63
2023-02-22T04:43:01.049Z,3.17
2023-02-22T04:46:33.177Z,4.30
2023-02-22T04:50:06.557Z,4.27
2023-02-22T04:53:38.345Z,3.92
2023-02-22T04:57:10.745Z,3.13
2023-02-22T05:00:42.537Z,4.10
2023-02-22T05:04:14.773Z,3.30
2023-02-22T05:07:46.638Z,4.80
2023-02-22T05:11:19.061Z,3.53
2023-02-22T05:14:51.074Z,4.40
2023-02-22T05:18:23.727Z,3.20
2023-02-22T05:21:58.238Z,2.50
2023-02-22T05:25:30.775Z,3.33
2023-02-22T05:29:03.314Z,3.40
2023-02-22T05:32:36.100Z,3.70
2023-02-22T05:36:08.679Z,3.80
2023-02-22T05:39:40.903Z,3.88
2023-02-22T05:43:12.765Z,4.18
2023-02-22T05:46:44.924Z,5.72
2023-02-22T05:50:17.591Z,6.20
2023-02-22T05:53:52.154Z,5.38
2023-02-22T05:57:24.234Z,5.35
2023-02-22T06:00:58.625Z,4.93
2023-02-22T06:04:33.078Z,6.13
2023-02-22T06:08:08.091Z,6.28
2023-02-22T06:11:40.211Z,7.80
2023-02-22T06:15:12.196Z,7.82
2023-02-22T06:18:44.379Z,6.95
2023-02-22T06:22:19.053Z,5.05
2023-02-22T06:25:51.189Z,4.97
2023-02-22T06:29:27.477Z,4.00
2023-02-22T06:32:59.633Z,3.47
2023-02-22T06:36:31.948Z,3.97
2023-02-22T06:40:05.829Z,4.60
2023-02-22T06:43:37.639Z,5.95
2023-02-22T06:47:09.766Z,7.87
2023-02-22T06:50:41.541Z,9.02
2023-02-22T06:54:14.788Z,9.52
2023-02-22T06:57:46.702Z,9.13
2023-02-22T07:01:19.093Z,7.47
2023-02-22T07:04:51.161Z,7.95
2023-02-22T07:08:23.562Z,7.95
2023-02-22T07:11:56.197Z,7.30
2023-02-22T07:15:30.466Z,6.30
2023-02-22T07:19:02.373Z,5.13
2023-02-22T07:22:34.443Z,5.20
2023-02-22T07:26:06.237Z,4.85
2023-02-22T07:29:38.296Z,6.05
2023-02-22T07:33:13.021Z,4.32
2023-02-22T07:36:45.260Z,6.50
2023-02-22T07:40:18.199Z,5.80
2023-02-22T07:43:50.329Z,5.97
2023-02-22T07:47:22.496Z,6.10
2023-02-22T07:50:54.764Z,5.78
2023-02-22T07:54:26.861Z,4.70
2023-02-22T07:58:01.216Z,5.93
2023-02-22T08:01:33.271Z,5.72
2023-02-22T08:05:06.959Z,5.57
2023-02-22T08:08:38.925Z,5.82
2023-02-22T08:12:10.994Z,5.77
2023-02-22T08:15:47.196Z,5.05
2023-02-22T08:19:19.476Z,5.53
2023-02-22T08:22:51.936Z,5.97
2023-02-22T08:26:25.448Z,5.65
2023-02-22T08:29:57.708Z,5.78
2023-02-22T08:33:29.725Z,5.23
2023-02-22T08:37:01.822Z,6.38
2023-02-22T08:40:36.913Z,5.63
2023-02-22T08:44:09.347Z,4.78
2023-02-22T08:47:41.686Z,5.80
2023-02-22T08:51:13.596Z,5.72
2023-02-22T08:54:46.331Z,5.75
2023-02-22T08:58:18.374Z,5.83
2023-02-22T09:01:50.773Z,6.05
2023-02-22T09:05:22.664Z,5.78
2023-02-22T09:08:55.082Z,5.13
2023-02-22T09:12:27.136Z,5.45
2023-02-22T09:15:58.950Z,4.85
2023-02-22T09:19:33.483Z,5.00
2023-02-22T09:23:06.648Z,5.43
2023-02-22T09:26:42.808Z,4.25
2023-02-22T09:30:32.054Z,4.88
2023-02-22T09:34:13.666Z,4.27
2023-02-22T09:37:45.932Z,5.53
2023-02-22T09:41:36.023Z,4.13
2023-02-22T09:45:18.515Z,4.73
2023-02-22T09:49:08.970Z,4.78
2023-02-22T09:52:56.643Z,5.05
2023-02-22T09:56:31.324Z,6.53
2023-02-22T10:00:13.713Z,5.90
2023-02-22T10:03:56.283Z,6.05
2023-02-22T10:07:46.709Z,5.88
2023-02-22T10:11:24.471Z,6.90
2023-02-22T10:15:29.784Z,6.80
2023-02-22T10:19:24.504Z,8.10
2023-02-22T10:23:10.046Z,8.13
2023-02-22T10:26:44.428Z,7.37
2023-02-22T10:30:26.851Z,8.43
2023-02-22T10:34:03.347Z,7.45
2023-02-22T10:37:35.471Z,8.50
2023-02-22T10:41:10.633Z,8.33
2023-02-22T10:44:42.649Z,8.07
2023-02-22T10:48:18.661Z,7.95
2023-02-22T10:52:17.579Z,8.23
2023-02-22T10:56:08.673Z,8.18
2023-02-22T10:59:42.463Z,8.35
2023-02-22T11:03:23.770Z,8.50
2023-02-22T11:07:01.799Z,9.90
2023-02-22T11:10:38.714Z,8.05
2023-02-22T11:14:11.832Z,8.38
2023-02-22T11:17:46.580Z,7.73
2023-02-22T11:21:23.100Z,7.70
2023-02-22T11:25:02.295Z,7.32
2023-02-22T11:28:35.304Z,7.78
2023-02-22T11:32:22.344Z,7.37
2023-02-22T11:35:59.844Z,7.78
2023-02-22T11:39:36.343Z,7.45
2023-02-22T11:43:17.422Z,7.70
2023-02-22T11:46:55.613Z,7.70
2023-02-22T11:50:39.962Z,7.32
2023-02-22T11:54:29.043Z,7.05
2023-02-22T11:58:08.604Z,8.53
2023-02-22T12:01:51.299Z,7.40
2023-02-22T12:05:59.591Z,7.93
2023-02-22T12:10:10.530Z,6.90
2023-02-22T12:13:53.941Z,6.73
2023-02-22T12:18:00.069Z,5.85
2023-02-22T12:21:37.744Z,5.72
2023-02-22T12:25:15.797Z,6.57
2023-02-22T12:28:59.381Z,5.30
2023-02-22T12:32:38.405Z,4.75
2023-02-22T12:36:15.850Z,5.43
2023-02-22T12:40:13.490Z,5.13
2023-02-22T12:43:51.923Z,5.37
2023-02-22T12:47:34.601Z,4.40
2023-02-22T12:51:34.704Z,4.43
2023-02-22T12:55:22.411Z,4.43
2023-02-22T12:59:05.889Z,3.72
2023-02-22T13:02:44.003Z,3.85
2023-02-22T13:06:36.292Z,4.13
2023-02-22T13:10:23.820Z,4.57
2023-02-22T13:14:22.392Z,3.67
2023-02-22T13:18:26.486Z,4.05
2023-02-22T13:22:19.583Z,3.63
2023-02-22T13:26:08.287Z,3.83
2023-02-22T13:29:44.810Z,3.47
2023-02-22T13:33:39.790Z,3.70
2023-02-22T13:37:12.034Z,3.67
2023-02-22T13:40:46.768Z,2.70
2023-02-22T13:44:25.129Z,3.03
2023-02-22T13:48:21.148Z,2.50
2023-02-22T13:51:59.109Z,2.08
2023-02-22T13:55:34.596Z,2.22
2023-02-22T13:59:06.835Z,2.40
2023-02-22T14:03:03.060Z,2.10
2023-02-22T14:06:38.029Z,2.10
2023-02-22T14:10:37.971Z,2.55
2023-02-22T14:14:13.585Z,2.00
2023-02-22T14:18:01.178Z,2.22
2023-02-22T14:21:37.759Z,1.98
2023-02-22T14:25:30.532Z,2.47
2023-02-22T14:29:16.528Z,2.17
2023-02-22T14:32:49.211Z,2.00
2023-02-22T14:36:40.148Z,2.40
2023-02-22T14:40:31.815Z,2.27
2023-02-22T14:44:05.911Z,1.97
2023-02-22T14:48:04.084Z,1.60
2023-02-22T14:51:43.386Z,1.88
2023-02-22T14:55:25.331Z,1.83
2023-02-22T14:59:15.645Z,2.05
2023-02-22T15:02:49.539Z,2.90
2023-02-22T15:06:29.079Z,11.48
2023-02-22T15:10:23.964Z,2.70
2023-02-22T15:13:57.976Z,4.40
2023-02-22T15:17:30.034Z,22.20
2023-02-22T15:21:16.577Z,39.27
2023-02-22T15:25:00.802Z,100.18
2023-02-22T15:28:33.137Z,35.40
2023-02-22T15:32:49.849Z,12.57
2023-02-22T15:36:31.329Z,5.70
2023-02-22T15:40:14.681Z,6.97
2023-02-22T15:44:01.797Z,4.13
2023-02-22T15:47:35.662Z,4.40
2023-02-22T15:51:14.052Z,4.90
2023-02-22T15:54:49.796Z,8.05
2023-02-22T15:58:28.721Z,3.42
2023-02-22T16:02:01.376Z,5.00
2023-02-22T16:05:43.792Z,3.92
2023-02-22T16:09:25.930Z,3.60
2023-02-22T16:13:07.969Z,3.57
2023-02-22T16:16:41.881Z,4.32
2023-02-22T16:20:20.524Z,4.80
2023-02-22T16:23:59.078Z,4.40
2023-02-22T16:27:47.513Z,2.67
2023-02-22T16:31:25.491Z,2.97
2023-02-22T16:34:57.438Z,2.40
2023-02-22T16:38:32.851Z,3.40
2023-02-22T16:42:10.092Z,4.03
2023-02-22T16:45:45.367Z,5.63
2023-02-22T16:49:17.137Z,4.67
2023-02-22T16:52:50.695Z,4.57
2023-02-22T16:56:31.127Z,5.40
2023-02-22T17:00:07.955Z,4.77
2023-02-22T17:03:42.507Z,7.65
2023-02-22T17:07:15.597Z,8.63
2023-02-22T17:10:51.633Z,6.00
2023-02-22T17:14:35.520Z,5.77
2023-02-22T17:18:16.382Z,4.60
2023-02-22T17:21:49.236Z,5.40
2023-02-22T17:25:31.227Z,6.87
2023-02-22T17:29:03.060Z,7.60
2023-02-22T17:32:35.206Z,15.35
2023-02-22T17:36:07.781Z,15.40
2023-02-22T17:39:39.863Z,12.70
2023-02-22T17:43:11.860Z,13.30
2023-02-22T17:46:44.115Z,12.65
2023-02-22T17:50:16.786Z,14.00
2023-02-22T17:53:48.881Z,16.83
2023-02-22T17:57:21.791Z,12.70
2023-02-22T18:00:59.336Z,12.67
2023-02-22T18:04:34.914Z,12.00
2023-02-22T18:08:07.089Z,13.57
2023-02-22T18:11:39.980Z,15.43
2023-02-22T18:15:12.193Z,14.95
2023-02-22T18:18:44.201Z,12.60
2023-02-22T18:22:16.354Z,12.27
2023-02-22T18:26:07.794Z,11.77
2023-02-22T18:29:42.401Z,11.50
2023-02-22T18:33:15.050Z,11.13
2023-02-22T18:36:47.012Z,8.70
2023-02-22T18:40:19.689Z,8.05
2023-02-22T18:43:51.649Z,9.93
2023-02-22T18:47:26.236Z,7.80
2023-02-22T18:51:03.594Z,6.88
2023-02-22T18:54:38.555Z,7.47
2023-02-22T18:58:11.247Z,7.13
2023-02-22T19:01:49.029Z,8.50
2023-02-22T19:05:21.445Z,9.35
2023-02-22T19:08:53.533Z,7.72
2023-02-22T19:12:27.353Z,9.77
2023-02-22T19:16:03.553Z,14.00
2023-02-22T19:19:35.846Z,14.20
2023-02-22T19:23:10.505Z,9.43
2023-02-22T19:26:50.615Z,8.82
2023-02-22T19:30:24.322Z,7.47
2023-02-22T19:33:59.292Z,7.47
2023-02-22T19:37:35.960Z,8.53
2023-02-22T19:41:12.384Z,7.60
2023-02-22T19:44:44.289Z,8.15
2023-02-22T19:48:17.640Z,8.00
2023-02-22T19:51:50.265Z,6.35
2023-02-22T19:55:22.243Z,8.07
2023-02-22T19:58:56.031Z,7.50
2023-02-22T20:02:28.431Z,6.75
2023-02-22T20:06:00.510Z,7.20
2023-02-22T20:09:43.288Z,5.97
2023-02-22T20:13:17.210Z,6.50
2023-02-22T20:16:53.528Z,6.47
2023-02-22T20:20:28.955Z,5.95
2023-02-22T20:24:07.804Z,6.90
2023-02-22T20:27:39.884Z,6.25
2023-02-22T20:31:13.833Z,6.38
2023-02-22T20:34:47.256Z,6.70
2023-02-22T20:38:21.511Z,5.65
2023-02-22T20:41:54.574Z,5.70
2023-02-22T20:45:26.870Z,6.57
2023-02-22T20:49:00.868Z,6.03
2023-02-22T20:52:32.922Z,6.57
2023-02-22T20:56:08.072Z,5.85
2023-02-22T20:59:44.412Z,6.43
2023-02-22T21:03:16.713Z,5.93
2023-02-22T21:06:49.172Z,6.15
2023-02-22T21:10:24.297Z,6.17
2023-02-22T21:13:56.890Z,6.75
2023-02-22T21:17:31.555Z,6.97
2023-02-22T21:21:12.903Z,6.05
2023-02-22T21:24:44.702Z,7.27
2023-02-22T21:28:16.730Z,6.60
2023-02-22T21:31:50.086Z,7.32
2023-02-22T21:35:24.492Z,7.80
2023-02-22T21:38:58.726Z,7.68
2023-02-22T21:42:31.061Z,9.07
2023-02-22T21:46:06.327Z,7.23
2023-02-22T21:49:38.919Z,6.75
2023-02-22T21:53:13.698Z,6.97
2023-02-22T21:56:45.772Z,8.40
2023-02-22T22:00:29.630Z,6.70
2023-02-22T22:04:04.861Z,6.47
2023-02-22T22:07:37.059Z,6.50
2023-02-22T22:11:14.930Z,6.90
2023-02-22T22:14:46.606Z,7.45
2023-02-22T22:18:18.956Z,7.63
2023-02-22T22:21:54.049Z,7.87
2023-02-22T22:25:28.250Z,6.63
2023-02-22T22:29:01.019Z,6.15
2023-02-22T22:32:35.101Z,7.00
2023-02-22T22:36:09.397Z,5.43
2023-02-22T22:39:41.153Z,6.28
2023-02-22T22:43:13.474Z,5.82
2023-02-22T22:46:49.328Z,5.63
2023-02-22T22:50:26.453Z,5.18
2023-02-22T22:53:59.528Z,6.55
2023-02-22T22:57:31.646Z,6.13
2023-02-22T23:01:06.772Z,5.15
2023-02-22T23:04:38.608Z,5.10
2023-02-22T23:08:11.178Z,4.72
2023-02-22T23:11:45.518Z,4.03
2023-02-22T23:15:18.144Z,5.82
2023-02-22T23:18:52.445Z,5.47
2023-02-22T23:22:25.604Z,4.47
2023-02-22T23:26:18.917Z,5.07
2023-02-22T23:29:50.748Z,6.15
2023-02-22T23:33:23.068Z,4.87
2023-02-22T23:36:55.164Z,6.15
2023-02-22T23:40:29.362Z,5.25
2023-02-22T23:44:02.672Z,5.00
2023-02-22T23:47:35.123Z,5.17
2023-02-22T23:51:09.213Z,4.75
2023-02-22T23:54:44.205Z,5.35
2023-02-22T23:58:16.246Z,4.77
